Weather at Lamia Air Base [CLOSED]

Public forecast

Using degrees Celsius for public forecast. Weather courtesy of forecast.io.

Closest aviation weather report (METAR) to Lamia Air Base

Closest report is Nea Anchialos National Airport, 26.6 nm (49.3 km) NE.

2024/07/20 20:50 (retrieved 51 minutes ago)

LGBL 202050Z 28004KT CAVOK 24/17 Q1008 BLU

Closest aviation forecast (TAF) to Lamia Air Base

Closest forecast is Elefsis Air Base, 71.7 nm (132.9 km) SE.

2024/07/20 18:13 (retrieved 3 hours ago)

TAF LGEL 201700Z 2018/2118 35012KT CAVOK BECMG 2020/2022 VRB05KT BECMG 2107/2109 17010KT 9999 FEW030